Time;durP1;ratioP1;P1;durP2;ratioP2;P2;SDS_P1;SDS_P2;PMS_P1;PMS_P2;Temp;Humidity;BMP_temperature;BMP_pressure;BME280_temperature;BME280_humidity;BME280_pressure;Samples;Min_cycle;Max_cycle;Signal;HPM_P1;HPM_P2
2021/11/12 00:12:29;;;;;;;25.50;19.70;;;3.30;99.90;;;;;;5082278;28;20245;-49
2021/11/12 00:14:55;;;;;;;25.67;20.63;;;3.80;99.90;;;;;;5088353;28;20192;-50
2021/11/12 00:17:27;;;;;;;26.77;20.52;;;3.90;99.90;;;;;;5083285;28;20216;-49
2021/11/12 00:19:54;;;;;;;26.80;20.52;;;3.80;99.90;;;;;;5085040;28;20291;-50
2021/11/12 00:22:22;;;;;;;24.10;19.98;;;3.80;99.90;;;;;;5089716;28;20193;-49
2021/11/12 00:24:50;;;;;;;24.45;19.60;;;3.60;99.90;;;;;;5090341;28;20593;-49
2021/11/12 00:27:16;;;;;;;29.23;21.83;;;3.70;99.90;;;;;;5083209;28;20174;-49
2021/11/12 00:30:14;;;;;;;29.27;20.63;;;3.80;99.90;;;;;;5091528;28;20287;-50
2021/11/12 00:35:16;;;;;;;30.40;22.20;;;3.90;99.90;;;;;;5084306;28;20188;-48
2021/11/12 00:40:29;;;;;;;27.42;21.58;;;3.70;99.90;;;;;;5082049;28;20207;-48
2021/11/12 00:45:33;;;;;;;26.80;21.88;;;3.90;99.90;;;;;;5092690;28;20180;-49
2021/11/12 00:51:17;;;;;;;28.92;21.90;;;3.80;99.90;;;;;;5090352;28;20319;-49
2021/11/12 00:55:45;;;;;;;29.87;21.47;;;3.70;99.90;;;;;;5089461;28;20234;-49
2021/11/12 00:58:14;;;;;;;28.63;22.63;;;3.90;99.90;;;;;;5081740;28;20173;-49
2021/11/12 01:00:41;;;;;;;29.70;22.52;;;3.70;99.90;;;;;;5080649;28;20228;-49
2021/11/12 01:03:06;;;;;;;28.60;22.90;;;3.90;99.90;;;;;;5084466;28;20189;-49
2021/11/12 01:05:32;;;;;;;27.43;21.93;;;3.80;99.90;;;;;;5093495;28;20195;-50
2021/11/12 01:08:00;;;;;;;28.13;21.63;;;3.80;99.90;;;;;;5090812;28;20735;-50
2021/11/12 01:10:27;;;;;;;29.30;22.65;;;3.80;99.90;;;;;;5085105;28;20226;-50
2021/11/12 01:12:53;;;;;;;27.75;22.25;;;3.60;99.90;;;;;;5092323;28;20187;-50
2021/11/12 01:15:21;;;;;;;29.50;20.17;;;3.80;99.90;;;;;;5077409;28;20184;-51
2021/11/12 01:17:48;;;;;;;29.73;22.38;;;3.50;99.90;;;;;;5087121;28;20177;-50
2021/11/12 01:20:16;;;;;;;30.80;22.90;;;3.60;99.90;;;;;;5089473;28;20208;-50
2021/11/12 01:22:42;;;;;;;29.58;22.35;;;3.60;99.90;;;;;;5089173;28;20235;-51
2021/11/12 01:25:10;;;;;;;26.90;21.70;;;3.60;99.90;;;;;;5096407;28;20192;-50
2021/11/12 01:27:38;;;;;;;27.15;21.60;;;3.60;99.90;;;;;;5091066;28;20184;-50
2021/11/12 01:30:06;;;;;;;28.17;21.02;;;3.10;99.90;;;;;;5083410;28;20252;-50
2021/11/12 01:32:32;;;;;;;26.90;20.55;;;3.50;99.90;;;;;;5091341;28;20202;-49
2021/11/12 01:35:00;;;;;;;31.00;21.23;;;3.70;99.90;;;;;;5081167;28;20189;-49
2021/11/12 01:37:27;;;;;;;28.10;20.95;;;3.70;99.90;;;;;;5086880;28;20466;-50
2021/11/12 01:39:57;;;;;;;30.95;23.15;;;3.80;99.90;;;;;;5087213;28;20244;-50
2021/11/12 01:42:28;;;;;;;28.77;20.83;;;3.80;99.90;;;;;;5086595;28;20192;-49
2021/11/12 01:45:04;;;;;;;29.15;22.45;;;3.80;99.90;;;;;;5079239;28;20189;-50
2021/11/12 01:47:40;;;;;;;32.72;22.88;;;3.20;99.90;;;;;;5089051;28;20640;-50
2021/11/12 01:50:14;;;;;;;36.83;24.88;;;3.40;99.90;;;;;;5091040;28;20679;-49
2021/11/12 01:52:46;;;;;;;32.10;23.52;;;3.70;99.90;;;;;;5091491;28;20569;-49
2021/11/12 01:58:05;;;;;;;32.20;23.98;;;3.50;99.90;;;;;;5084791;28;20251;-50
2021/11/12 02:00:32;;;;;;;34.83;23.27;;;3.50;99.90;;;;;;5077571;28;20271;-50
2021/11/12 02:02:59;;;;;;;34.90;23.60;;;3.40;99.90;;;;;;5076812;28;20205;-50
2021/11/12 02:05:25;;;;;;;30.27;23.05;;;2.90;99.90;;;;;;5087199;28;20271;-49
2021/11/12 02:07:51;;;;;;;33.15;24.55;;;3.40;99.90;;;;;;5091730;28;20193;-50
2021/11/12 02:10:25;;;;;;;30.83;22.77;;;3.70;99.90;;;;;;5088184;28;20219;-50
2021/11/12 02:15:46;;;;;;;27.98;21.55;;;3.40;99.90;;;;;;5077337;28;20189;-48
2021/11/12 02:18:16;;;;;;;30.50;22.20;;;3.60;99.90;;;;;;5082960;28;20211;-50
2021/11/12 02:24:01;;;;;;;30.80;22.60;;;3.50;99.90;;;;;;5084831;28;20556;-49
2021/11/12 02:26:32;;;;;;;26.55;20.00;;;3.60;99.90;;;;;;5082457;28;20604;-49
2021/11/12 02:28:59;;;;;;;28.33;21.48;;;3.30;99.90;;;;;;5086603;28;20557;-49
2021/11/12 02:31:27;;;;;;;25.10;19.38;;;3.40;99.90;;;;;;5079381;28;20204;-49
2021/11/12 02:33:54;;;;;;;26.35;20.20;;;2.90;99.90;;;;;;5077889;28;20188;-49
2021/11/12 02:36:20;;;;;;;27.58;21.67;;;3.40;99.90;;;;;;5085149;28;20203;-49
2021/11/12 02:38:51;;;;;;;23.43;19.33;;;3.40;99.90;;;;;;5089435;28;20180;-50
2021/11/12 02:41:17;;;;;;;21.52;19.13;;;2.70;99.90;;;;;;5087022;28;21080;-50
2021/11/12 02:43:47;;;;;;;24.60;20.17;;;3.50;99.90;;;;;;5081732;28;20608;-49
2021/11/12 02:46:15;;;;;;;26.88;21.35;;;3.20;99.90;;;;;;5083094;28;20891;-51
2021/11/12 02:48:42;;;;;;;23.60;20.65;;;3.40;99.90;;;;;;5067395;28;20562;-47
2021/11/12 02:51:12;;;;;;;23.13;19.05;;;3.30;99.90;;;;;;5078455;28;20208;-48
2021/11/12 02:53:39;;;;;;;24.90;20.05;;;3.30;99.90;;;;;;5078181;28;20189;-48
2021/11/12 02:56:13;;;;;;;24.48;19.20;;;3.00;99.90;;;;;;5079787;28;20193;-48
2021/11/12 02:58:39;;;;;;;24.25;19.85;;;3.00;99.90;;;;;;5088639;28;20182;-48
2021/11/12 03:01:08;;;;;;;26.00;20.63;;;3.70;99.90;;;;;;5077872;28;20572;-50
2021/11/12 03:03:34;;;;;;;23.75;20.15;;;3.40;99.90;;;;;;5085614;28;20531;-49
2021/11/12 03:06:00;;;;;;;22.80;19.13;;;3.50;99.90;;;;;;5087238;28;20242;-48
2021/11/12 03:08:27;;;;;;;23.87;19.20;;;3.40;99.90;;;;;;5076797;28;20213;-48
2021/11/12 03:10:55;;;;;;;22.33;17.88;;;3.80;99.90;;;;;;5075848;28;20215;-48
2021/11/12 03:13:22;;;;;;;23.38;18.58;;;3.50;99.90;;;;;;5086057;28;20176;-49
2021/11/12 03:15:48;;;;;;;21.98;18.45;;;3.30;99.90;;;;;;5087624;28;20705;-48
2021/11/12 03:18:14;;;;;;;21.13;17.90;;;3.40;99.90;;;;;;5074162;28;20564;-51
2021/11/12 03:20:42;;;;;;;21.65;17.95;;;3.10;99.90;;;;;;5079353;28;20284;-51
2021/11/12 03:23:14;;;;;;;20.55;17.85;;;3.20;99.90;;;;;;5080369;28;20242;-51
2021/11/12 03:26:03;;;;;;;23.00;18.92;;;3.50;99.90;;;;;;5084397;28;20261;-50
2021/11/12 04:03:35;;;;;;;27.80;22.23;;;3.60;99.90;;;;;;5073645;28;20556;-51
2021/11/12 05:11:37;;;;;;;33.95;24.98;;;3.40;99.90;;;;;;5085533;28;20223;-50
2021/11/12 05:44:40;;;;;;;31.02;21.88;;;3.90;99.90;;;;;;5083408;28;20200;-48
2021/11/12 05:57:25;;;;;;;29.02;21.83;;;2.90;99.90;;;;;;5075502;28;20188;-49
2021/11/12 05:59:51;;;;;;;33.10;21.00;;;3.20;99.90;;;;;;5081297;28;20577;-48
2021/11/12 06:02:17;;;;;;;31.23;22.65;;;3.30;99.90;;;;;;5078049;28;20181;-49
2021/11/12 06:04:43;;;;;;;29.13;22.50;;;3.10;99.90;;;;;;5086097;28;20681;-49
2021/11/12 06:07:09;;;;;;;31.70;21.23;;;3.00;99.90;;;;;;5083872;28;20425;-49
2021/11/12 06:09:36;;;;;;;31.98;22.00;;;2.90;99.90;;;;;;5079981;28;20620;-49
2021/11/12 06:12:02;;;;;;;31.60;22.13;;;2.90;99.90;;;;;;5079383;28;20213;-49
2021/11/12 06:14:28;;;;;;;27.65;21.98;;;3.00;99.90;;;;;;5081116;28;20181;-49
2021/11/12 06:16:55;;;;;;;32.10;21.27;;;2.80;99.90;;;;;;5085528;28;20180;-49
2021/11/12 06:19:22;;;;;;;29.10;22.80;;;3.00;99.90;;;;;;5080930;28;20636;-49
2021/11/12 06:21:48;;;;;;;28.65;22.40;;;2.70;99.90;;;;;;5089134;28;20233;-49
2021/11/12 06:24:15;;;;;;;27.00;21.40;;;2.90;99.90;;;;;;5083905;28;20270;-49
2021/11/12 06:26:40;;;;;;;30.83;24.13;;;3.40;99.90;;;;;;5081952;28;20555;-49
2021/11/12 06:29:07;;;;;;;27.27;20.97;;;3.00;99.90;;;;;;5074738;28;20201;-48
2021/11/12 06:31:33;;;;;;;24.73;19.55;;;2.40;99.90;;;;;;5086626;28;20566;-49
2021/11/12 06:33:59;;;;;;;25.30;19.73;;;2.70;99.90;;;;;;5082329;28;20184;-48
2021/11/12 06:36:26;;;;;;;27.60;21.20;;;2.50;99.90;;;;;;5061118;28;20565;-50
2021/11/12 06:38:54;;;;;;;30.45;21.60;;;3.20;99.90;;;;;;5075414;28;20183;-50
2021/11/12 06:41:56;;;;;;;29.23;21.85;;;3.20;99.90;;;;;;5076076;28;20208;-52
2021/11/12 06:49:33;;;;;;;29.05;22.08;;;3.30;99.90;;;;;;5082991;28;20223;-50
2021/11/12 06:51:59;;;;;;;31.20;22.42;;;2.60;99.90;;;;;;5088942;28;20319;-50
2021/11/12 06:54:24;;;;;;;32.60;23.97;;;3.10;99.90;;;;;;5083365;28;20721;-50
2021/11/12 06:56:50;;;;;;;29.57;23.63;;;3.20;99.90;;;;;;5079647;28;20243;-49
2021/11/12 06:59:16;;;;;;;27.17;20.33;;;2.50;99.90;;;;;;5078560;28;20470;-49
2021/11/12 07:01:42;;;;;;;34.83;22.10;;;3.00;99.90;;;;;;5083412;28;20446;-49
2021/11/12 07:04:08;;;;;;;28.53;22.10;;;3.00;99.90;;;;;;5082369;28;20986;-49
2021/11/12 07:06:36;;;;;;;29.40;21.43;;;2.90;99.90;;;;;;5077323;28;20942;-49
2021/11/12 07:09:05;;;;;;;29.13;21.08;;;3.30;99.90;;;;;;5079958;28;20445;-51
2021/11/12 07:11:31;;;;;;;31.02;21.90;;;3.30;99.90;;;;;;5081172;28;20208;-51
2021/11/12 07:13:56;;;;;;;28.87;21.57;;;2.80;99.90;;;;;;5085026;28;20612;-50
2021/11/12 07:16:22;;;;;;;28.40;21.80;;;3.10;99.90;;;;;;5086811;28;22023;-51
2021/11/12 07:18:48;;;;;;;29.17;21.60;;;3.50;99.90;;;;;;5078088;28;20663;-50
2021/11/12 07:21:14;;;;;;;30.50;23.53;;;2.90;99.90;;;;;;5078695;28;20455;-49
2021/11/12 07:23:40;;;;;;;30.43;21.80;;;3.10;99.90;;;;;;5083359;28;20253;-55
2021/11/12 07:26:05;;;;;;;28.33;20.65;;;3.40;99.90;;;;;;5088195;28;20813;-55
2021/11/12 07:28:31;;;;;;;26.47;21.50;;;3.20;99.90;;;;;;5079169;28;20223;-50
2021/11/12 07:30:57;;;;;;;28.10;22.47;;;3.30;99.90;;;;;;5080619;28;20342;-50
2021/11/12 07:33:24;;;;;;;32.67;22.73;;;3.40;99.90;;;;;;5098406;28;20565;-51
2021/11/12 07:36:00;;;;;;;30.60;22.05;;;3.50;99.90;;;;;;5079578;28;20321;-53
2021/11/12 07:38:30;;;;;;;34.50;21.88;;;3.60;99.90;;;;;;5094162;28;20187;-53
2021/11/12 07:48:32;;;;;;;25.60;21.23;;;3.80;99.90;;;;;;5076793;28;20310;-51
2021/11/12 07:50:58;;;;;;;30.00;23.63;;;4.40;99.90;;;;;;5094047;28;20647;-50
2021/11/12 07:53:25;;;;;;;29.70;22.05;;;4.10;99.90;;;;;;5089698;28;20269;-50
2021/11/12 07:55:53;;;;;;;32.53;24.30;;;3.30;99.90;;;;;;5083028;28;20215;-52
2021/11/12 07:58:19;;;;;;;27.30;21.00;;;3.70;99.90;;;;;;5069994;28;20624;-50
2021/11/12 08:00:45;;;;;;;25.85;19.90;;;3.70;99.90;;;;;;5060196;28;20220;-51
2021/11/12 08:03:11;;;;;;;25.37;19.70;;;3.50;99.90;;;;;;5078735;28;20191;-50
2021/11/12 08:05:39;;;;;;;26.13;20.63;;;3.40;99.90;;;;;;5079626;28;20658;-51
2021/11/12 08:08:09;;;;;;;28.25;19.90;;;3.80;99.90;;;;;;5078879;28;20557;-51
2021/11/12 08:10:44;;;;;;;22.63;19.13;;;3.60;99.90;;;;;;5083773;28;20216;-50
2021/11/12 08:13:13;;;;;;;24.83;20.35;;;3.60;99.90;;;;;;5073062;28;20184;-50
2021/11/12 08:15:57;;;;;;;22.50;18.73;;;3.70;99.90;;;;;;5076915;28;20192;-51
2021/11/12 08:21:05;;;;;;;26.10;21.77;;;3.70;99.90;;;;;;5089664;28;20256;-51
2021/11/12 08:34:14;;;;;;;28.73;21.90;;;4.20;99.90;;;;;;5100915;28;20203;-51
2021/11/12 08:41:57;;;;;;;25.40;21.02;;;3.90;99.90;;;;;;5091814;28;20212;-50
2021/11/12 08:44:45;;;;;;;28.08;22.20;;;4.40;99.90;;;;;;5083515;28;20215;-49
2021/11/12 08:47:14;;;;;;;25.15;22.17;;;3.80;99.90;;;;;;5082090;28;20641;-49
2021/11/12 08:49:42;;;;;;;26.30;21.27;;;4.70;99.90;;;;;;5082528;28;20700;-50
2021/11/12 08:52:12;;;;;;;27.08;21.25;;;3.70;99.90;;;;;;5088194;28;20204;-51
2021/11/12 08:54:39;;;;;;;23.88;20.33;;;4.60;99.90;;;;;;5081175;28;20219;-51
2021/11/12 08:57:10;;;;;;;24.52;20.27;;;5.30;99.90;;;;;;5062034;28;20186;-51
2021/11/12 08:59:39;;;;;;;22.52;18.83;;;5.40;99.90;;;;;;5092505;28;20227;-50
2021/11/12 09:02:14;;;;;;;28.42;22.05;;;5.30;99.90;;;;;;5089910;28;20181;-49
2021/11/12 09:04:42;;;;;;;22.98;20.48;;;5.70;99.90;;;;;;5092503;28;20549;-50
2021/11/12 09:07:09;;;;;;;26.17;20.08;;;5.00;99.90;;;;;;5086281;28;20185;-50
2021/11/12 09:09:36;;;;;;;23.98;19.67;;;5.10;99.90;;;;;;5091196;28;20202;-51
2021/11/12 09:12:03;;;;;;;27.85;22.65;;;5.90;99.90;;;;;;5093437;28;20215;-50
2021/11/12 09:14:30;;;;;;;26.83;21.92;;;5.60;99.90;;;;;;5077385;28;20531;-50
2021/11/12 09:17:04;;;;;;;25.60;20.13;;;5.30;99.90;;;;;;5078337;28;20189;-50
2021/11/12 09:19:30;;;;;;;26.67;21.58;;;5.50;99.90;;;;;;5090128;28;20293;-49
2021/11/12 09:21:55;;;;;;;27.27;21.92;;;5.70;99.90;;;;;;5084062;28;20612;-49
2021/11/12 09:24:21;;;;;;;26.40;21.47;;;5.50;99.90;;;;;;5083330;28;20183;-49
2021/11/12 09:26:47;;;;;;;30.63;20.53;;;5.70;99.90;;;;;;5085033;28;20186;-49
2021/11/12 09:29:13;;;;;;;28.17;22.13;;;5.90;99.90;;;;;;5080853;28;20270;-48
2021/11/12 09:31:40;;;;;;;28.30;19.60;;;6.50;99.90;;;;;;5080788;28;20472;-49
2021/11/12 09:34:10;;;;;;;23.60;19.83;;;6.10;99.90;;;;;;5060749;28;20501;-49
2021/11/12 09:36:35;;;;;;;24.45;19.95;;;5.80;99.90;;;;;;5092309;28;20188;-49
2021/11/12 09:39:02;;;;;;;28.47;21.40;;;5.70;99.90;;;;;;5087092;28;20599;-49
2021/11/12 09:41:28;;;;;;;29.67;23.15;;;6.50;99.90;;;;;;5076619;28;20700;-50
2021/11/12 09:43:53;;;;;;;31.42;22.88;;;6.50;99.90;;;;;;5083225;28;20225;-49
2021/11/12 09:46:19;;;;;;;30.37;21.50;;;6.70;99.90;;;;;;5075062;28;20631;-49
2021/11/12 09:48:45;;;;;;;29.98;23.52;;;6.80;99.90;;;;;;5088643;28;20270;-49
2021/11/12 09:51:12;;;;;;;25.50;21.17;;;6.80;99.90;;;;;;5089268;28;20639;-49
2021/11/12 09:53:38;;;;;;;30.83;22.90;;;6.80;99.90;;;;;;5081710;28;20441;-50
2021/11/12 09:56:07;;;;;;;30.75;22.40;;;6.80;99.90;;;;;;5091037;28;20548;-50
2021/11/12 09:58:33;;;;;;;25.83;21.75;;;6.60;99.90;;;;;;5089513;28;20275;-50
2021/11/12 10:01:00;;;;;;;27.95;22.70;;;6.40;99.90;;;;;;5079237;28;20507;-50
2021/11/12 10:03:34;;;;;;;28.75;20.98;;;6.20;99.90;;;;;;5091376;28;20191;-50
2021/11/12 10:06:16;;;;;;;29.60;23.08;;;6.60;99.90;;;;;;5087113;28;20191;-49
2021/11/12 10:08:42;;;;;;;27.58;22.83;;;6.50;99.90;;;;;;5090331;28;20193;-49
2021/11/12 10:11:10;;;;;;;30.10;22.73;;;6.00;99.90;;;;;;5084647;28;20218;-51
2021/11/12 10:13:42;;;;;;;28.25;23.80;;;6.30;99.90;;;;;;5080556;28;20434;-50
2021/11/12 10:16:24;;;;;;;28.45;22.67;;;6.70;99.90;;;;;;5083783;28;20494;-49
2021/11/12 10:19:10;;;;;;;31.73;20.58;;;6.70;99.90;;;;;;5078652;28;20182;-49
2021/11/12 10:21:46;;;;;;;27.27;21.85;;;7.00;99.90;;;;;;5088717;28;20184;-49
2021/11/12 10:24:16;;;;;;;28.83;21.70;;;7.30;99.90;;;;;;5081068;28;20605;-49
2021/11/12 10:26:45;;;;;;;28.40;22.55;;;6.90;99.90;;;;;;5079370;28;20610;-49
2021/11/12 10:29:14;;;;;;;26.90;22.55;;;6.80;99.90;;;;;;5074044;23;20225;-53
2021/11/12 10:31:48;;;;;;;33.35;23.48;;;7.00;99.90;;;;;;5052420;28;20204;-54
2021/11/12 10:34:26;;;;;;;28.63;22.30;;;7.10;99.90;;;;;;5045998;28;20208;-54
2021/11/12 10:37:33;;;;;;;29.30;23.10;;;6.80;99.90;;;;;;5067775;28;20220;-53
2021/11/12 10:40:11;;;;;;;28.08;21.92;;;6.80;99.90;;;;;;4959343;28;20211;-53
2021/11/12 10:42:54;;;;;;;30.13;23.48;;;7.10;99.90;;;;;;4960459;28;20177;-53
2021/11/12 10:45:23;;;;;;;31.17;24.10;;;6.90;99.90;;;;;;5032066;28;20708;-53
2021/11/12 10:47:51;;;;;;;28.83;23.42;;;6.80;99.90;;;;;;5056493;28;20186;-53
2021/11/12 10:50:18;;;;;;;30.95;23.98;;;6.80;99.90;;;;;;5055456;28;20193;-52
2021/11/12 10:52:44;;;;;;;35.83;25.85;;;6.50;99.90;;;;;;5033866;28;20185;-53
2021/11/12 10:55:16;;;;;;;33.40;22.95;;;6.60;99.90;;;;;;5054755;28;20996;-53
2021/11/12 10:58:00;;;;;;;31.17;24.23;;;6.30;99.90;;;;;;5068678;28;20214;-53
2021/11/12 11:00:48;;;;;;;33.95;24.90;;;6.80;99.90;;;;;;5055669;28;20200;-52
2021/11/12 11:03:17;;;;;;;29.73;22.60;;;6.80;99.90;;;;;;5062162;28;20853;-53
2021/11/12 11:06:03;;;;;;;31.38;23.42;;;7.10;99.90;;;;;;5058493;28;20193;-53
2021/11/12 11:08:32;;;;;;;30.35;22.83;;;7.30;99.90;;;;;;5057646;28;20634;-53
2021/11/12 11:11:06;;;;;;;29.38;23.17;;;7.50;99.90;;;;;;5049364;28;20213;-53
2021/11/12 11:13:35;;;;;;;30.45;23.65;;;7.60;99.90;;;;;;5063773;28;20180;-52
2021/11/12 11:16:16;;;;;;;31.80;22.98;;;7.30;99.90;;;;;;5062187;28;20342;-53
2021/11/12 11:18:49;;;;;;;28.58;23.38;;;7.20;99.90;;;;;;5057916;28;20180;-53
2021/11/12 11:24:05;;;;;;;27.95;23.10;;;7.20;99.90;;;;;;5068493;28;20181;-53
2021/11/12 11:26:46;;;;;;;30.88;25.25;;;7.00;99.90;;;;;;5058435;28;20703;-54
2021/11/12 11:29:17;;;;;;;32.50;24.27;;;7.60;99.90;;;;;;5057357;28;20211;-54
2021/11/12 11:31:43;;;;;;;30.90;23.80;;;7.70;99.90;;;;;;5041804;28;20212;-54
2021/11/12 11:34:09;;;;;;;29.48;23.98;;;7.50;99.90;;;;;;5065822;28;20235;-53
2021/11/12 11:36:39;;;;;;;32.72;23.27;;;7.60;99.90;;;;;;5068072;28;20184;-52
2021/11/12 11:39:08;;;;;;;29.52;23.85;;;7.70;99.90;;;;;;5039127;28;20241;-53
2021/11/12 11:41:35;;;;;;;27.20;22.63;;;7.70;99.90;;;;;;5053729;28;20230;-53
2021/11/12 11:44:01;;;;;;;27.77;23.80;;;7.30;99.90;;;;;;5064297;28;20267;-53
2021/11/12 11:46:29;;;;;;;28.60;23.20;;;7.40;99.90;;;;;;5050823;28;20721;-54
2021/11/12 11:49:00;;;;;;;27.63;22.85;;;7.50;99.90;;;;;;5054735;28;20645;-54
2021/11/12 11:51:35;;;;;;;29.48;23.70;;;7.50;99.90;;;;;;5061845;28;20219;-54
2021/11/12 11:54:10;;;;;;;30.65;23.77;;;6.80;99.90;;;;;;5050134;28;20606;-54
2021/11/12 11:56:46;;;;;;;33.00;25.08;;;7.40;99.90;;;;;;5054048;28;20188;-53
2021/11/12 11:59:23;;;;;;;30.30;23.38;;;7.00;99.90;;;;;;5061322;28;20226;-53
2021/11/12 12:01:57;;;;;;;31.00;24.30;;;7.10;99.90;;;;;;5055700;28;20188;-53
2021/11/12 12:04:59;;;;;;;30.05;25.20;;;7.30;99.90;;;;;;5053581;28;20176;-53
2021/11/12 12:07:53;;;;;;;30.50;24.65;;;7.20;99.90;;;;;;4975790;28;20192;-53
2021/11/12 12:10:27;;;;;;;33.92;23.80;;;7.40;99.90;;;;;;5055748;28;20226;-54
2021/11/12 12:13:16;;;;;;;30.23;23.42;;;7.50;99.90;;;;;;5036009;28;20775;-55
2021/11/12 12:15:44;;;;;;;28.85;24.58;;;7.50;99.90;;;;;;5050710;28;20550;-55
2021/11/12 12:18:18;;;;;;;29.52;24.20;;;7.70;99.90;;;;;;5051561;28;20263;-54
2021/11/12 12:33:20;;;;;;;32.40;24.73;;;7.90;99.90;;;;;;5057076;28;20257;-56
2021/11/12 13:25:31;;;;;;;35.20;27.17;;;7.60;99.90;;;;;;5057264;28;20189;-52
2021/11/12 13:28:32;;;;;;;40.08;28.08;;;7.50;99.90;;;;;;5049693;28;20185;-52
2021/11/12 13:31:00;;;;;;;34.33;27.08;;;7.40;99.90;;;;;;5020676;28;20258;-53
2021/11/12 13:33:46;;;;;;;39.97;29.13;;;7.60;99.90;;;;;;5059384;28;20224;-53
2021/11/12 13:36:25;;;;;;;36.10;28.25;;;7.70;99.90;;;;;;5058440;28;20177;-52
2021/11/12 13:39:03;;;;;;;39.88;29.85;;;7.60;99.90;;;;;;5055122;28;20189;-52
2021/11/12 13:41:34;;;;;;;43.80;30.35;;;7.50;99.90;;;;;;5057472;28;20205;-53
2021/11/12 13:44:06;;;;;;;40.72;29.45;;;7.70;99.90;;;;;;5047832;28;20185;-54
2021/11/12 13:47:05;;;;;;;40.58;29.70;;;7.80;99.90;;;;;;5068506;28;20188;-53
2021/11/12 13:49:35;;;;;;;41.55;30.00;;;7.50;99.90;;;;;;5043580;28;20215;-53
2021/11/12 13:52:11;;;;;;;40.28;31.17;;;7.60;99.90;;;;;;5056183;28;20212;-54
2021/11/12 13:54:48;;;;;;;37.08;28.73;;;7.40;99.90;;;;;;5062000;28;20184;-54
2021/11/12 13:57:26;;;;;;;41.53;29.05;;;7.40;99.90;;;;;;5071677;28;20720;-56
2021/11/12 14:00:01;;;;;;;38.80;29.92;;;7.40;99.90;;;;;;5050936;28;20250;-55
2021/11/12 14:02:28;;;;;;;42.28;29.83;;;7.40;99.90;;;;;;5064141;28;20263;-54
2021/11/12 14:05:10;;;;;;;36.25;28.17;;;7.50;99.90;;;;;;5058082;28;20214;-54
2021/11/12 14:07:35;;;;;;;39.70;28.05;;;7.20;99.90;;;;;;5056291;28;20664;-55
2021/11/12 14:10:05;;;;;;;37.87;28.43;;;7.30;99.90;;;;;;5056683;28;20212;-54
2021/11/12 14:12:31;;;;;;;40.65;29.33;;;7.40;99.90;;;;;;5043957;28;20268;-54
2021/11/12 14:15:20;;;;;;;42.38;28.70;;;7.00;99.90;;;;;;5063164;28;20184;-54
2021/11/12 14:17:57;;;;;;;40.40;29.15;;;7.30;99.90;;;;;;5055326;28;20238;-54
2021/11/12 14:23:11;;;;;;;38.95;29.83;;;7.00;99.90;;;;;;5056202;28;20177;-55
2021/11/12 14:28:15;;;;;;;39.13;29.05;;;6.90;99.90;;;;;;5068964;28;20185;-52
2021/11/12 14:33:19;;;;;;;42.90;30.23;;;6.90;99.90;;;;;;5054589;28;20647;-53
2021/11/12 14:46:33;;;;;;;39.22;28.60;;;7.00;99.90;;;;;;5060306;28;20281;-53
2021/11/12 14:49:18;;;;;;;35.10;27.00;;;7.30;99.90;;;;;;5057534;28;20172;-53
2021/11/12 14:52:09;;;;;;;37.00;26.38;;;7.10;99.90;;;;;;5062367;28;20219;-52
2021/11/12 14:54:49;;;;;;;35.72;25.30;;;7.10;99.90;;;;;;5063352;28;20272;-53
2021/11/12 14:57:38;;;;;;;40.10;27.30;;;6.70;99.90;;;;;;5056451;28;20182;-53
2021/11/12 15:00:14;;;;;;;35.55;26.40;;;6.90;99.90;;;;;;5038734;28;20205;-53
2021/11/12 15:02:41;;;;;;;37.13;27.00;;;6.80;99.90;;;;;;5060992;28;20191;-54
2021/11/12 15:05:09;;;;;;;34.58;23.92;;;6.90;99.90;;;;;;5050368;28;20174;-55
2021/11/12 15:07:51;;;;;;;32.75;23.55;;;6.80;99.90;;;;;;5062881;28;20651;-55
2021/11/12 15:10:25;;;;;;;32.35;23.90;;;6.80;99.90;;;;;;5054835;28;20212;-54
2021/11/12 15:12:51;;;;;;;31.00;23.60;;;6.40;99.90;;;;;;5051059;28;20217;-53
2021/11/12 15:15:18;;;;;;;30.30;22.35;;;6.50;99.90;;;;;;5054881;28;20195;-54
2021/11/12 15:17:44;;;;;;;29.80;22.30;;;6.00;99.90;;;;;;5060850;28;20509;-53
2021/11/12 15:20:10;;;;;;;30.70;22.43;;;6.40;99.90;;;;;;5055357;28;20280;-53
2021/11/12 15:30:31;;;;;;;33.65;23.10;;;6.10;99.90;;;;;;5063060;28;20631;-54
2021/11/12 15:33:01;;;;;;;27.17;19.80;;;6.10;99.90;;;;;;5063979;28;20288;-54
2021/11/12 15:35:29;;;;;;;28.75;21.90;;;5.90;99.90;;;;;;5060310;28;20177;-57
2021/11/12 15:38:10;;;;;;;34.85;22.75;;;6.30;99.90;;;;;;5056838;28;20178;-57
2021/11/12 15:40:46;;;;;;;33.33;22.83;;;6.00;99.90;;;;;;5053034;28;20199;-55
2021/11/12 15:43:18;;;;;;;30.75;21.33;;;6.00;99.90;;;;;;5052815;28;20499;-52
2021/11/12 15:48:16;;;;;;;32.03;21.80;;;5.90;99.90;;;;;;5058908;28;20236;-53
2021/11/12 15:53:21;;;;;;;29.83;21.83;;;5.90;99.90;;;;;;5061607;28;20280;-56
2021/11/12 15:55:56;;;;;;;30.52;22.33;;;6.00;99.90;;;;;;5067982;28;20581;-56
2021/11/12 16:01:01;;;;;;;34.92;24.02;;;5.80;99.90;;;;;;5061925;28;20207;-55
2021/11/12 16:06:46;;;;;;;31.05;22.00;;;5.70;99.90;;;;;;5056320;28;20702;-55
2021/11/12 16:11:45;;;;;;;31.10;21.87;;;5.60;99.90;;;;;;5059442;28;20464;-56
2021/11/12 16:14:21;;;;;;;33.72;23.52;;;6.00;99.90;;;;;;5059103;28;20777;-56
2021/11/12 16:27:18;;;;;;;32.38;22.98;;;5.50;99.90;;;;;;5059362;28;20178;-55
2021/11/12 16:29:52;;;;;;;35.92;23.77;;;5.30;99.90;;;;;;5065185;28;20224;-55
2021/11/12 16:32:26;;;;;;;32.28;22.10;;;5.40;99.90;;;;;;5058848;28;20213;-55
2021/11/12 16:35:00;;;;;;;37.60;23.52;;;5.40;99.90;;;;;;5053135;28;20183;-56
2021/11/12 16:37:27;;;;;;;33.17;23.70;;;5.40;99.90;;;;;;5065540;28;20649;-56
2021/11/12 16:58:26;;;;;;;37.30;23.17;;;5.50;99.90;;;;;;5056080;28;20182;-55
2021/11/12 17:06:27;;;;;;;34.78;23.58;;;5.50;99.90;;;;;;5066686;28;20200;-56
2021/11/12 17:16:53;;;;;;;31.02;23.27;;;5.80;99.90;;;;;;5061956;28;20201;-55
2021/11/12 17:19:33;;;;;;;33.08;23.50;;;5.20;99.90;;;;;;5052545;28;20208;-56
2021/11/12 17:46:34;;;;;;;32.10;20.50;;;5.30;99.90;;;;;;5056024;28;20200;-56
2021/11/12 18:05:35;;;;;;;36.60;24.50;;;5.30;99.90;;;;;;5060200;23;20231;-52
2021/11/12 21:44:25;;;;;;;26.25;20.95;;;4.00;99.90;;;;;;5030018;28;20302;-53
2021/11/12 21:46:52;;;;;;;25.95;20.40;;;3.80;99.90;;;;;;5020167;28;20498;-54
2021/11/12 21:49:18;;;;;;;26.58;21.00;;;4.10;99.90;;;;;;5037265;28;20697;-54
2021/11/12 21:51:44;;;;;;;23.63;19.50;;;3.80;99.90;;;;;;5031544;28;20206;-54
2021/11/12 21:54:11;;;;;;;27.67;21.65;;;3.70;99.90;;;;;;5021465;28;20194;-52
2021/11/12 21:56:37;;;;;;;29.52;21.52;;;4.00;99.90;;;;;;5029638;28;20214;-52
2021/11/12 21:59:03;;;;;;;25.33;19.90;;;4.10;99.90;;;;;;5028167;28;20272;-53
2021/11/12 22:01:30;;;;;;;23.05;19.95;;;3.70;99.90;;;;;;5030838;28;20463;-54
2021/11/12 22:03:57;;;;;;;21.85;19.50;;;3.80;99.90;;;;;;5031271;28;20191;-53
2021/11/12 22:06:23;;;;;;;22.70;19.83;;;3.50;99.90;;;;;;5030300;28;20236;-54
2021/11/12 22:08:49;;;;;;;22.67;18.48;;;3.60;99.90;;;;;;5027874;28;20244;-53
2021/11/12 22:11:15;;;;;;;22.77;17.65;;;4.00;99.90;;;;;;5030187;28;20245;-53
2021/11/12 22:13:42;;;;;;;25.98;21.08;;;4.20;99.90;;;;;;5023821;28;20193;-53
2021/11/12 22:16:10;;;;;;;24.90;19.40;;;3.90;99.90;;;;;;5031451;28;20174;-52
2021/11/12 22:18:37;;;;;;;24.17;19.63;;;3.90;99.90;;;;;;5029307;28;20859;-53
2021/11/12 22:21:04;;;;;;;23.92;20.08;;;4.00;99.90;;;;;;5014242;28;20210;-54
2021/11/12 22:23:30;;;;;;;22.08;19.05;;;3.70;99.90;;;;;;5031070;28;20206;-53
2021/11/12 22:25:58;;;;;;;23.35;18.92;;;3.80;99.90;;;;;;5031336;28;20645;-54
2021/11/12 22:28:24;;;;;;;25.25;19.15;;;3.70;99.90;;;;;;5026780;28;20194;-53
2021/11/12 22:30:50;;;;;;;23.70;20.37;;;3.30;99.90;;;;;;5030979;28;20199;-53
2021/11/12 22:33:16;;;;;;;26.20;20.45;;;3.60;99.90;;;;;;5029544;28;20445;-53
2021/11/12 22:35:43;;;;;;;25.30;21.25;;;3.80;99.90;;;;;;5030148;28;20205;-53
2021/11/12 22:38:10;;;;;;;25.33;21.30;;;3.70;99.90;;;;;;5029918;28;20198;-54
2021/11/12 22:40:37;;;;;;;23.05;19.58;;;3.60;99.90;;;;;;5025470;28;20222;-54
2021/11/12 22:43:03;;;;;;;26.85;22.20;;;3.00;99.90;;;;;;5029667;28;20193;-53
2021/11/12 22:45:29;;;;;;;24.17;20.00;;;3.00;99.90;;;;;;5030934;28;20548;-54
2021/11/12 22:47:55;;;;;;;25.00;20.77;;;3.50;99.90;;;;;;5033785;28;20501;-53
2021/11/12 22:50:22;;;;;;;24.20;20.02;;;3.10;99.90;;;;;;5024795;28;20472;-54
2021/11/12 22:52:48;;;;;;;23.23;19.02;;;3.50;99.90;;;;;;5022574;28;20206;-53
2021/11/12 22:55:14;;;;;;;25.23;20.58;;;3.40;99.90;;;;;;5024213;28;20287;-53
2021/11/12 22:57:39;;;;;;;23.50;19.67;;;3.50;99.90;;;;;;5023681;28;20178;-53
2021/11/12 23:00:28;;;;;;;22.97;19.80;;;3.40;99.90;;;;;;5028789;28;20453;-53
2021/11/12 23:02:54;;;;;;;24.67;18.77;;;3.30;99.90;;;;;;5027684;28;20522;-53